Time;durP1;ratioP1;P1;durP2;ratioP2;P2;SDS_P1;SDS_P2;PMS_P1;PMS_P2;Temp;Humidity;BMP_temperature;BMP_pressure;BME280_temperature;BME280_humidity;BME280_pressure;Samples;Min_cycle;Max_cycle;Signal;HPM_P1;HPM_P2
2024/01/27 00:00:48;;;;;;;16.23;2.33;;;;;;;;;;5035718;28;20565;-69
2024/01/27 00:03:15;;;;;;;10.80;1.87;;;;;;;;;;5035697;28;20218;-69
2024/01/27 00:05:41;;;;;;;10.17;1.90;;;;;;;;;;5035653;28;20184;-69
2024/01/27 00:08:26;;;;;;;11.07;2.00;;;;;;;;;;5038299;28;20179;-69
2024/01/27 00:10:52;;;;;;;10.90;1.80;;;;;;;;;;5035547;28;20682;-69
2024/01/27 00:13:37;;;;;;;11.67;1.77;;;;;;;;;;5038235;28;20414;-69
2024/01/27 00:16:03;;;;;;;14.93;2.20;;;;;;;;;;5019599;28;20452;-68
2024/01/27 00:18:30;;;;;;;14.90;2.67;;;;;;;;;;5019110;28;20430;-68
2024/01/27 00:20:57;;;;;;;14.23;2.83;;;;;;;;;;5018598;28;20229;-69
2024/01/27 00:23:24;;;;;;;12.40;2.20;;;;;;;;;;5035101;28;20441;-68
2024/01/27 00:25:50;;;;;;;5.57;2.27;;;;;;;;;;5034982;28;20418;-69
2024/01/27 00:28:17;;;;;;;11.13;1.93;;;;;;;;;;5018900;28;20440;-68
2024/01/27 00:30:44;;;;;;;8.47;2.03;;;;;;;;;;5019059;28;20194;-68
2024/01/27 00:33:11;;;;;;;6.63;0.77;;;;;;;;;;5051454;28;20197;-68
2024/01/27 00:35:37;;;;;;;7.83;1.60;;;;;;;;;;5035223;28;20713;-70
2024/01/27 00:38:04;;;;;;;4.50;1.20;;;;;;;;;;5071483;28;20190;-70
2024/01/27 00:40:31;;;;;;;6.90;1.60;;;;;;;;;;5055321;28;20294;-70
2024/01/27 00:42:58;;;;;;;7.57;1.13;;;;;;;;;;5054983;28;20433;-70
2024/01/27 00:45:27;;;;;;;9.97;1.97;;;;;;;;;;5054983;28;20190;-70
2024/01/27 00:47:54;;;;;;;9.37;1.73;;;;;;;;;;5054355;28;20433;-70
2024/01/27 00:50:21;;;;;;;10.67;1.47;;;;;;;;;;5054492;28;20622;-70
2024/01/27 00:52:47;;;;;;;12.83;1.87;;;;;;;;;;5054295;28;20316;-70
2024/01/27 00:55:14;;;;;;;7.40;1.60;;;;;;;;;;5067316;28;20191;-70
2024/01/27 00:57:41;;;;;;;10.63;1.87;;;;;;;;;;5054839;28;20187;-70
2024/01/27 01:00:08;;;;;;;3.20;1.33;;;;;;;;;;5054330;28;20524;-69
2024/01/27 01:02:36;;;;;;;8.53;1.47;;;;;;;;;;5070873;28;20472;-70
2024/01/27 01:05:03;;;;;;;5.00;1.50;;;;;;;;;;5054169;28;20194;-69
2024/01/27 01:07:30;;;;;;;9.03;1.60;;;;;;;;;;5054604;28;20924;-69
2024/01/27 01:09:57;;;;;;;6.97;1.60;;;;;;;;;;5053913;28;20494;-69
2024/01/27 01:12:25;;;;;;;8.53;1.83;;;;;;;;;;5054385;28;20746;-69
2024/01/27 01:50:45;;;;;;;4.03;0.90;;;;;;;;;;5034611;28;20871;-71
2024/01/27 01:53:12;;;;;;;4.13;0.97;;;;;;;;;;5033348;28;20450;-70
2024/01/27 01:55:39;;;;;;;4.83;0.70;;;;;;;;;;5033587;28;20500;-70
2024/01/27 01:58:06;;;;;;;3.30;0.90;;;;;;;;;;5033491;28;20653;-70
2024/01/27 02:00:32;;;;;;;2.03;0.63;;;;;;;;;;5033421;28;20430;-70
2024/01/27 02:02:59;;;;;;;2.67;0.90;;;;;;;;;;5033246;28;20466;-70
2024/01/27 02:05:26;;;;;;;3.30;0.50;;;;;;;;;;5033397;28;20191;-70
2024/01/27 02:07:56;;;;;;;2.97;0.70;;;;;;;;;;5033421;28;20774;-70
2024/01/27 02:10:23;;;;;;;4.00;0.77;;;;;;;;;;5033548;28;20418;-70
2024/01/27 02:12:49;;;;;;;1.33;0.60;;;;;;;;;;5049711;28;20434;-70
2024/01/27 02:15:16;;;;;;;2.20;0.90;;;;;;;;;;5034035;28;20438;-71
2024/01/27 02:17:43;;;;;;;2.07;0.40;;;;;;;;;;5033184;28;20952;-70
2024/01/27 02:20:10;;;;;;;3.13;0.50;;;;;;;;;;5032850;28;20456;-70
2024/01/27 02:22:36;;;;;;;3.33;0.60;;;;;;;;;;5032952;28;20504;-70
2024/01/27 02:25:20;;;;;;;1.93;0.77;;;;;;;;;;5035514;28;20407;-69
2024/01/27 02:27:48;;;;;;;4.33;0.93;;;;;;;;;;5049704;28;20611;-69
2024/01/27 02:30:32;;;;;;;2.60;0.93;;;;;;;;;;5033450;28;20410;-70
2024/01/27 02:32:59;;;;;;;3.77;0.63;;;;;;;;;;5032639;28;20429;-70
2024/01/27 02:35:25;;;;;;;2.30;0.73;;;;;;;;;;5034106;28;20811;-70
2024/01/27 02:37:52;;;;;;;1.97;0.60;;;;;;;;;;5032172;28;20797;-70
2024/01/27 02:40:19;;;;;;;2.03;0.70;;;;;;;;;;5032282;28;20195;-70
2024/01/27 02:42:45;;;;;;;3.03;0.90;;;;;;;;;;5031758;28;20782;-69
2024/01/27 02:45:12;;;;;;;2.37;0.47;;;;;;;;;;5033119;28;20434;-69
2024/01/27 02:47:39;;;;;;;3.27;0.50;;;;;;;;;;5016286;28;20946;-69
2024/01/27 02:50:07;;;;;;;1.30;0.63;;;;;;;;;;5016482;28;20426;-69
2024/01/27 02:52:33;;;;;;;1.27;0.50;;;;;;;;;;5032775;28;20460;-69
2024/01/27 02:55:00;;;;;;;3.63;0.63;;;;;;;;;;5032873;28;20438;-69
2024/01/27 02:57:27;;;;;;;3.30;0.70;;;;;;;;;;5016834;28;20735;-69
2024/01/27 02:59:54;;;;;;;2.10;0.80;;;;;;;;;;5016204;28;20496;-69
2024/01/27 03:02:21;;;;;;;2.67;0.87;;;;;;;;;;5016874;28;20465;-69
2024/01/27 03:04:48;;;;;;;4.43;1.13;;;;;;;;;;5016964;28;20470;-69
2024/01/27 03:07:14;;;;;;;4.50;1.30;;;;;;;;;;5032586;28;20471;-69
2024/01/27 03:09:41;;;;;;;7.13;1.30;;;;;;;;;;5016321;28;20434;-69
2024/01/27 03:12:08;;;;;;;2.63;1.33;;;;;;;;;;5016739;28;20420;-69
2024/01/27 03:14:35;;;;;;;2.83;0.90;;;;;;;;;;5015846;28;20959;-69
2024/01/27 03:17:01;;;;;;;3.93;0.93;;;;;;;;;;5033334;28;20426;-69
2024/01/27 03:19:28;;;;;;;1.63;0.27;;;;;;;;;;5016030;28;20438;-69
2024/01/27 03:21:55;;;;;;;3.37;0.97;;;;;;;;;;5015815;28;20485;-69
2024/01/27 03:24:21;;;;;;;3.87;1.27;;;;;;;;;;5032618;28;20438;-69
2024/01/27 03:26:48;;;;;;;1.53;0.60;;;;;;;;;;5015898;28;20430;-69
2024/01/27 03:29:15;;;;;;;3.80;0.90;;;;;;;;;;5016275;28;20813;-69
2024/01/27 03:31:42;;;;;;;2.33;0.40;;;;;;;;;;5015666;28;20429;-69
2024/01/27 03:34:09;;;;;;;3.73;0.80;;;;;;;;;;5032183;28;20964;-69
2024/01/27 03:36:35;;;;;;;3.77;0.70;;;;;;;;;;5033023;28;20436;-69
2024/01/27 03:39:03;;;;;;;3.07;0.70;;;;;;;;;;5015854;28;20921;-69
2024/01/27 03:41:30;;;;;;;4.20;1.30;;;;;;;;;;5032248;28;20462;-69
2024/01/27 03:43:56;;;;;;;3.63;1.07;;;;;;;;;;5016000;28;20426;-69
2024/01/27 03:46:23;;;;;;;1.63;0.43;;;;;;;;;;5016059;28;20191;-69
2024/01/27 03:48:50;;;;;;;1.90;0.40;;;;;;;;;;5032733;28;20781;-69
2024/01/27 03:51:17;;;;;;;3.50;0.57;;;;;;;;;;5019077;28;20566;-69
2024/01/27 03:53:43;;;;;;;0.80;0.40;;;;;;;;;;5036955;28;20219;-69
2024/01/27 03:56:27;;;;;;;2.43;0.60;;;;;;;;;;5041618;28;20616;-69
2024/01/27 04:02:54;;;;;;;2.30;0.40;;;;;;;;;;5056499;28;20432;-69
2024/01/27 04:05:20;;;;;;;0.93;0.50;;;;;;;;;;5038879;28;20187;-69
2024/01/27 04:08:05;;;;;;;3.47;0.77;;;;;;;;;;5027868;28;20495;-69
2024/01/27 04:10:31;;;;;;;1.90;0.50;;;;;;;;;;5039595;28;20555;-69
2024/01/27 04:12:58;;;;;;;3.40;0.60;;;;;;;;;;5039112;28;20456;-69
2024/01/27 04:15:25;;;;;;;3.50;0.70;;;;;;;;;;5055113;28;20266;-69
2024/01/27 04:17:51;;;;;;;5.00;0.80;;;;;;;;;;5038599;28;20190;-69
2024/01/27 04:20:18;;;;;;;2.93;0.63;;;;;;;;;;5039512;28;20924;-69
2024/01/27 04:22:45;;;;;;;1.97;0.60;;;;;;;;;;5038650;28;20483;-69
2024/01/27 04:25:11;;;;;;;2.17;0.67;;;;;;;;;;5054879;28;20931;-69
2024/01/27 04:27:42;;;;;;;2.00;0.50;;;;;;;;;;5038610;28;20429;-69
2024/01/27 04:30:10;;;;;;;1.87;0.60;;;;;;;;;;5023527;28;20548;-69
2024/01/27 04:32:37;;;;;;;3.30;0.53;;;;;;;;;;5038589;28;20463;-69
2024/01/27 04:35:04;;;;;;;1.23;0.50;;;;;;;;;;5022081;28;20717;-69
2024/01/27 04:37:31;;;;;;;1.47;0.50;;;;;;;;;;5039095;28;20448;-69
2024/01/27 04:39:58;;;;;;;1.50;0.40;;;;;;;;;;5038427;28;20525;-69
2024/01/27 04:42:24;;;;;;;1.50;0.30;;;;;;;;;;5038317;28;20461;-69
2024/01/27 04:44:51;;;;;;;1.77;0.30;;;;;;;;;;5038326;28;20202;-69
2024/01/27 04:47:18;;;;;;;0.43;0.20;;;;;;;;;;5022643;28;20492;-69
2024/01/27 04:49:45;;;;;;;1.23;0.30;;;;;;;;;;5021978;28;20499;-69
2024/01/27 04:52:12;;;;;;;0.90;0.50;;;;;;;;;;5038500;28;20687;-69
2024/01/27 04:54:38;;;;;;;2.33;0.60;;;;;;;;;;5037828;28;20195;-69
2024/01/27 04:57:05;;;;;;;0.90;0.23;;;;;;;;;;5038645;28;20527;-69
2024/01/27 04:59:32;;;;;;;1.00;0.40;;;;;;;;;;5037788;28;20429;-69
2024/01/27 05:01:59;;;;;;;0.97;0.50;;;;;;;;;;5037006;28;20542;-69
2024/01/27 05:04:26;;;;;;;0.47;0.20;;;;;;;;;;5037973;28;20437;-69
2024/01/27 05:06:53;;;;;;;1.07;0.40;;;;;;;;;;5037931;28;20187;-69
2024/01/27 05:09:20;;;;;;;1.40;0.50;;;;;;;;;;5037760;28;20425;-69
2024/01/27 05:11:48;;;;;;;1.40;0.60;;;;;;;;;;5054331;28;20413;-69
2024/01/27 05:14:15;;;;;;;3.03;0.80;;;;;;;;;;5054068;28;20428;-69
2024/01/27 05:16:41;;;;;;;1.33;0.50;;;;;;;;;;5021569;28;20437;-69
2024/01/27 05:19:10;;;;;;;0.77;0.37;;;;;;;;;;5037492;28;20424;-69
2024/01/27 05:21:37;;;;;;;0.40;0.40;;;;;;;;;;5037629;28;20448;-69
2024/01/27 05:24:04;;;;;;;0.40;0.20;;;;;;;;;;5055245;28;20436;-69
2024/01/27 05:26:31;;;;;;;1.73;0.83;;;;;;;;;;5038247;28;20486;-69
2024/01/27 05:28:58;;;;;;;2.67;1.33;;;;;;;;;;5021057;28;20463;-69
2024/01/27 05:31:25;;;;;;;7.00;2.40;;;;;;;;;;5020731;28;20440;-69
2024/01/27 05:33:52;;;;;;;0.33;0.33;;;;;;;;;;5037413;28;20504;-69
2024/01/27 05:36:19;;;;;;;1.73;0.60;;;;;;;;;;5037563;28;20464;-69
2024/01/27 05:38:46;;;;;;;0.70;0.50;;;;;;;;;;5037373;28;20487;-69
2024/01/27 05:41:12;;;;;;;1.10;0.53;;;;;;;;;;5020504;28;20428;-69
2024/01/27 05:43:39;;;;;;;0.63;0.50;;;;;;;;;;5037186;28;20854;-69
2024/01/27 05:46:06;;;;;;;0.70;0.70;;;;;;;;;;5053376;28;20187;-69
2024/01/27 05:48:34;;;;;;;0.70;0.60;;;;;;;;;;5020891;28;20493;-70
2024/01/27 05:51:00;;;;;;;0.50;0.50;;;;;;;;;;5053646;28;20422;-69
2024/01/27 05:53:27;;;;;;;1.00;0.47;;;;;;;;;;5036535;28;20457;-69
2024/01/27 05:55:54;;;;;;;1.20;0.70;;;;;;;;;;5037368;28;20515;-69
2024/01/27 05:58:21;;;;;;;4.93;2.30;;;;;;;;;;5020462;28;20515;-69
2024/01/27 06:00:48;;;;;;;1.97;1.00;;;;;;;;;;5037202;28;20420;-69
2024/01/27 06:03:15;;;;;;;1.30;0.97;;;;;;;;;;5053287;28;20457;-69
2024/01/27 06:05:42;;;;;;;0.83;0.80;;;;;;;;;;5054165;28;20449;-70
2024/01/27 06:08:09;;;;;;;1.97;1.03;;;;;;;;;;5036937;28;20441;-69
2024/01/27 06:10:36;;;;;;;2.40;0.80;;;;;;;;;;5053208;28;20426;-69
2024/01/27 06:13:03;;;;;;;0.87;0.60;;;;;;;;;;5020177;28;20491;-69
2024/01/27 06:15:30;;;;;;;1.73;1.20;;;;;;;;;;5053151;28;20436;-70
2024/01/27 06:18:00;;;;;;;0.37;0.37;;;;;;;;;;5036490;28;20478;-69
2024/01/27 06:20:26;;;;;;;0.67;0.40;;;;;;;;;;5036492;28;20769;-70
2024/01/27 06:22:53;;;;;;;1.43;0.90;;;;;;;;;;5037141;28;20472;-70
2024/01/27 06:25:20;;;;;;;1.03;0.40;;;;;;;;;;5053298;28;20424;-69
2024/01/27 06:27:47;;;;;;;2.63;0.90;;;;;;;;;;5036729;28;20428;-69
2024/01/27 06:30:15;;;;;;;2.17;0.70;;;;;;;;;;5036612;28;20835;-69
2024/01/27 06:32:42;;;;;;;1.33;0.60;;;;;;;;;;5053167;28;20432;-69
2024/01/27 06:35:09;;;;;;;1.77;0.90;;;;;;;;;;5036449;28;20444;-70
2024/01/27 06:37:36;;;;;;;2.57;1.70;;;;;;;;;;5036180;28;20429;-69
2024/01/27 06:40:03;;;;;;;0.63;0.50;;;;;;;;;;5036289;28;20428;-69
2024/01/27 06:42:30;;;;;;;1.37;1.27;;;;;;;;;;5036432;28;20460;-69
2024/01/27 06:44:57;;;;;;;1.50;0.80;;;;;;;;;;5036539;28;20433;-69
2024/01/27 06:47:24;;;;;;;1.03;0.80;;;;;;;;;;5052525;28;20482;-69
2024/01/27 06:49:51;;;;;;;1.63;1.00;;;;;;;;;;5047565;28;20442;-69
2024/01/27 06:52:18;;;;;;;2.93;2.23;;;;;;;;;;5032312;28;20985;-69
2024/01/27 06:54:45;;;;;;;1.93;1.40;;;;;;;;;;5016592;28;20619;-69
2024/01/27 06:57:21;;;;;;;0.30;0.30;;;;;;;;;;5016545;28;21022;-69
2024/01/27 06:59:55;;;;;;;2.33;1.50;;;;;;;;;;5017184;28;20180;-69
2024/01/27 07:02:23;;;;;;;5.43;3.60;;;;;;;;;;5032525;28;20444;-69
2024/01/27 07:04:50;;;;;;;4.20;2.30;;;;;;;;;;5016658;28;20927;-71
2024/01/27 07:07:18;;;;;;;3.53;2.10;;;;;;;;;;5032475;28;20773;-71
2024/01/27 07:09:45;;;;;;;2.47;1.70;;;;;;;;;;5033076;28;20464;-72
2024/01/27 07:12:11;;;;;;;7.33;4.13;;;;;;;;;;5016332;28;20766;-72
2024/01/27 07:14:38;;;;;;;5.00;3.20;;;;;;;;;;5032700;28;20995;-69
2024/01/27 07:17:05;;;;;;;2.20;1.60;;;;;;;;;;5032640;28;20445;-69
2024/01/27 07:19:36;;;;;;;1.43;1.00;;;;;;;;;;5032393;28;20422;-68
2024/01/27 07:22:19;;;;;;;1.33;1.10;;;;;;;;;;5019058;28;20442;-68
2024/01/27 07:24:46;;;;;;;1.80;1.00;;;;;;;;;;5017048;28;20953;-69
2024/01/27 07:27:16;;;;;;;1.07;0.90;;;;;;;;;;5036453;28;20488;-68
2024/01/27 07:29:43;;;;;;;3.90;2.00;;;;;;;;;;5036215;28;20521;-68
2024/01/27 07:32:13;;;;;;;1.00;0.87;;;;;;;;;;5036429;28;20453;-69
2024/01/27 07:34:41;;;;;;;2.13;1.60;;;;;;;;;;5036177;28;20466;-68
2024/01/27 07:37:08;;;;;;;2.13;1.17;;;;;;;;;;5035796;28;20462;-69
2024/01/27 07:39:35;;;;;;;1.90;1.50;;;;;;;;;;5036189;28;20426;-68
2024/01/27 07:42:02;;;;;;;2.70;1.60;;;;;;;;;;5036577;28;20417;-68
2024/01/27 07:44:29;;;;;;;2.93;1.77;;;;;;;;;;5036447;28;20561;-68
2024/01/27 07:46:56;;;;;;;2.57;2.13;;;;;;;;;;5003892;28;20440;-68
2024/01/27 07:49:24;;;;;;;3.50;2.10;;;;;;;;;;5036820;28;20691;-68
2024/01/27 07:51:55;;;;;;;3.27;1.93;;;;;;;;;;5035355;28;20461;-67
2024/01/27 07:54:22;;;;;;;2.67;1.10;;;;;;;;;;5003215;28;20423;-67
2024/01/27 07:56:49;;;;;;;1.50;1.33;;;;;;;;;;5019872;28;20824;-72
2024/01/27 07:59:16;;;;;;;3.60;1.53;;;;;;;;;;5035622;28;20517;-69
2024/01/27 08:05:36;;;;;;;5.63;3.27;;;;;;;;;;5037088;28;20425;-68
2024/01/27 08:08:03;;;;;;;4.23;3.13;;;;;;;;;;5052766;28;20429;-72
2024/01/27 08:10:30;;;;;;;2.53;1.80;;;;;;;;;;5035392;28;20433;-72
2024/01/27 08:12:57;;;;;;;3.53;2.70;;;;;;;;;;5035632;28;20428;-73
2024/01/27 08:15:24;;;;;;;2.07;1.37;;;;;;;;;;5038515;28;20544;-69
2024/01/27 08:17:51;;;;;;;2.83;1.87;;;;;;;;;;5035988;28;20789;-69
2024/01/27 08:20:19;;;;;;;2.63;1.90;;;;;;;;;;5035177;28;20438;-68
2024/01/27 08:22:50;;;;;;;1.33;1.00;;;;;;;;;;5035870;28;20457;-72
2024/01/27 08:25:18;;;;;;;3.70;2.20;;;;;;;;;;5037174;28;20425;-72
2024/01/27 08:27:44;;;;;;;2.83;1.67;;;;;;;;;;5035308;28;20430;-72
2024/01/27 08:30:12;;;;;;;4.40;2.63;;;;;;;;;;5035141;28;20445;-71
2024/01/27 08:32:39;;;;;;;4.60;2.00;;;;;;;;;;5036495;28;20492;-70
2024/01/27 08:35:08;;;;;;;4.13;2.13;;;;;;;;;;5036368;28;20430;-71
2024/01/27 08:37:53;;;;;;;10.20;5.90;;;;;;;;;;5037323;28;20460;-72
2024/01/27 08:40:20;;;;;;;3.50;2.43;;;;;;;;;;5034795;28;20244;-72
2024/01/27 08:42:47;;;;;;;5.57;4.10;;;;;;;;;;5035071;28;20545;-72
2024/01/27 08:45:14;;;;;;;5.90;3.73;;;;;;;;;;5035335;28;20557;-72
2024/01/27 08:47:42;;;;;;;3.60;3.00;;;;;;;;;;5018396;28;20429;-72
2024/01/27 08:50:10;;;;;;;3.00;1.87;;;;;;;;;;5034991;28;20434;-72
2024/01/27 08:52:37;;;;;;;3.03;1.97;;;;;;;;;;5035778;28;20941;-71
2024/01/27 08:55:05;;;;;;;3.50;1.73;;;;;;;;;;5034959;28;20429;-72
2024/01/27 08:57:32;;;;;;;1.87;1.10;;;;;;;;;;5035030;28;20445;-72
2024/01/27 08:59:59;;;;;;;3.30;1.50;;;;;;;;;;5051123;28;20485;-71
2024/01/27 09:02:26;;;;;;;2.40;1.30;;;;;;;;;;5034567;28;20445;-72
2024/01/27 09:04:54;;;;;;;4.50;1.60;;;;;;;;;;5051468;28;20458;-71
2024/01/27 09:07:21;;;;;;;19.50;11.73;;;;;;;;;;5034488;28;20774;-72
2024/01/27 09:09:48;;;;;;;3.13;2.83;;;;;;;;;;5051069;28;20437;-71
2024/01/27 09:12:15;;;;;;;1.93;1.50;;;;;;;;;;5035066;28;20429;-71
2024/01/27 09:14:42;;;;;;;4.80;2.57;;;;;;;;;;5035299;28;20432;-72
2024/01/27 09:17:10;;;;;;;3.93;1.70;;;;;;;;;;5034175;28;20426;-71
2024/01/27 09:19:38;;;;;;;2.60;1.73;;;;;;;;;;5034175;28;20450;-71
2024/01/27 09:22:05;;;;;;;15.80;8.33;;;;;;;;;;5050753;28;20438;-71
2024/01/27 09:24:33;;;;;;;3.63;2.00;;;;;;;;;;5033836;28;20501;-71
2024/01/27 09:27:00;;;;;;;3.83;2.43;;;;;;;;;;5035664;28;20480;-71
2024/01/27 09:29:27;;;;;;;4.60;2.60;;;;;;;;;;5017555;28;20909;-71
2024/01/27 09:31:54;;;;;;;5.23;2.67;;;;;;;;;;5035747;28;20426;-71
2024/01/27 09:34:21;;;;;;;4.30;2.27;;;;;;;;;;5033948;28;20430;-71
2024/01/27 09:36:48;;;;;;;12.93;8.47;;;;;;;;;;5033787;28;20211;-71
2024/01/27 09:39:16;;;;;;;7.00;3.83;;;;;;;;;;5034028;28;20439;-70
2024/01/27 09:42:01;;;;;;;13.50;7.07;;;;;;;;;;5034422;28;20382;-71
2024/01/27 09:44:28;;;;;;;4.63;2.20;;;;;;;;;;5017368;28;20848;-71
2024/01/27 09:46:56;;;;;;;6.17;3.07;;;;;;;;;;5033761;28;20909;-71
2024/01/27 09:49:23;;;;;;;7.40;5.23;;;;;;;;;;5033640;28;20769;-72
2024/01/27 09:51:50;;;;;;;2.80;1.63;;;;;;;;;;5033727;28;20466;-67
2024/01/27 09:54:19;;;;;;;8.07;4.10;;;;;;;;;;5049991;28;20399;-69
2024/01/27 09:56:46;;;;;;;4.13;2.00;;;;;;;;;;5033582;28;20449;-68
2024/01/27 09:59:16;;;;;;;9.03;6.03;;;;;;;;;;5017431;28;20508;-68
2024/01/27 10:01:43;;;;;;;6.20;2.77;;;;;;;;;;5033564;28;20230;-68
2024/01/27 10:04:10;;;;;;;6.47;3.43;;;;;;;;;;5017337;28;20466;-68
2024/01/27 10:06:43;;;;;;;6.97;1.80;;;;;;;;;;5033396;28;20399;-68
2024/01/27 10:09:10;;;;;;;10.17;4.60;;;;;;;;;;5033322;28;20191;-68
2024/01/27 10:11:37;;;;;;;7.67;3.60;;;;;;;;;;5017134;28;20410;-68
2024/01/27 10:14:04;;;;;;;4.07;2.73;;;;;;;;;;5033331;28;20496;-68
2024/01/27 10:16:39;;;;;;;4.97;1.80;;;;;;;;;;5033164;28;20198;-68
2024/01/27 10:19:08;;;;;;;5.37;3.00;;;;;;;;;;5033381;28;20175;-68
2024/01/27 10:21:59;;;;;;;5.07;1.77;;;;;;;;;;5035915;28;20186;-68
2024/01/27 10:24:26;;;;;;;10.57;5.87;;;;;;;;;;5033150;28;20469;-67
2024/01/27 10:26:59;;;;;;;8.23;3.53;;;;;;;;;;5032684;28;20431;-69
2024/01/27 10:29:27;;;;;;;5.17;3.23;;;;;;;;;;5016766;28;20186;-69
2024/01/27 10:31:55;;;;;;;3.90;2.20;;;;;;;;;;5049677;28;20226;-70
2024/01/27 10:34:24;;;;;;;3.90;2.13;;;;;;;;;;5032894;28;20203;-70
2024/01/27 10:36:51;;;;;;;6.40;2.37;;;;;;;;;;5032795;28;20888;-70
2024/01/27 10:39:22;;;;;;;7.07;2.00;;;;;;;;;;5032802;28;20222;-70
2024/01/27 10:41:50;;;;;;;6.27;1.90;;;;;;;;;;5033174;28;20489;-70
2024/01/27 10:48:13;;;;;;;5.93;2.37;;;;;;;;;;5033816;28;20175;-69
2024/01/27 10:50:41;;;;;;;5.10;1.67;;;;;;;;;;5032653;28;20470;-69
2024/01/27 10:53:39;;;;;;;7.87;3.07;;;;;;;;;;5048603;28;20462;-68
2024/01/27 10:56:09;;;;;;;4.17;1.70;;;;;;;;;;5031220;28;20241;-71
2024/01/27 10:58:55;;;;;;;3.23;1.37;;;;;;;;;;5032820;28;20909;-70
2024/01/27 11:01:22;;;;;;;6.13;2.67;;;;;;;;;;5032592;28;20924;-71
2024/01/27 11:03:50;;;;;;;4.83;1.97;;;;;;;;;;5048990;28;20454;-68
2024/01/27 11:06:17;;;;;;;5.13;2.00;;;;;;;;;;5032988;28;20191;-68
2024/01/27 11:08:45;;;;;;;4.53;1.60;;;;;;;;;;5032020;28;20187;-70
2024/01/27 11:11:13;;;;;;;9.07;2.97;;;;;;;;;;5032483;28;20630;-70
2024/01/27 11:13:40;;;;;;;5.67;2.60;;;;;;;;;;5033464;28;20480;-70
2024/01/27 11:16:14;;;;;;;5.30;1.70;;;;;;;;;;5032434;28;20211;-71
2024/01/27 11:18:43;;;;;;;4.50;1.80;;;;;;;;;;5048531;28;20414;-70
2024/01/27 11:21:16;;;;;;;4.40;2.00;;;;;;;;;;5049050;28;20192;-71
2024/01/27 11:24:00;;;;;;;3.37;1.60;;;;;;;;;;5034352;28;20434;-71
2024/01/27 11:26:27;;;;;;;10.43;3.40;;;;;;;;;;5032389;28;20423;-71
2024/01/27 11:29:05;;;;;;;15.43;6.87;;;;;;;;;;5032377;28;20532;-71
2024/01/27 11:31:32;;;;;;;7.83;3.80;;;;;;;;;;5033613;28;20175;-71
2024/01/27 11:33:59;;;;;;;13.10;5.47;;;;;;;;;;5033596;28;20414;-71
2024/01/27 11:36:26;;;;;;;30.47;14.90;;;;;;;;;;5031826;28;20449;-71
2024/01/27 11:38:55;;;;;;;3.60;1.40;;;;;;;;;;5033459;28;20469;-71
2024/01/27 11:41:30;;;;;;;5.00;2.00;;;;;;;;;;5032073;28;20180;-71
2024/01/27 11:43:59;;;;;;;5.80;2.23;;;;;;;;;;5032170;28;20465;-71
2024/01/27 11:46:27;;;;;;;4.43;1.63;;;;;;;;;;5033386;28;21029;-71
2024/01/27 11:48:54;;;;;;;3.57;1.27;;;;;;;;;;5035588;28;20197;-71
2024/01/27 11:51:23;;;;;;;7.00;2.40;;;;;;;;;;5035570;28;20623;-71
2024/01/27 11:53:50;;;;;;;4.73;1.80;;;;;;;;;;5035940;28;20178;-71
2024/01/27 11:56:17;;;;;;;2.20;0.80;;;;;;;;;;5052953;28;20456;-71
2024/01/27 11:58:48;;;;;;;4.70;1.70;;;;;;;;;;5035395;28;20187;-71
2024/01/27 12:01:16;;;;;;;7.87;2.20;;;;;;;;;;5051992;28;20482;-71
2024/01/27 12:03:45;;;;;;;3.63;1.43;;;;;;;;;;5035200;28;20473;-72
2024/01/27 12:06:14;;;;;;;5.60;1.57;;;;;;;;;;5051835;28;20179;-71
2024/01/27 12:08:46;;;;;;;4.50;1.67;;;;;;;;;;5052849;28;20265;-71
2024/01/27 12:11:17;;;;;;;6.63;1.90;;;;;;;;;;5053567;28;20197;-71
2024/01/27 12:13:51;;;;;;;8.43;1.40;;;;;;;;;;5040373;28;20634;-71
2024/01/27 12:16:20;;;;;;;5.17;1.53;;;;;;;;;;5056125;28;20256;-71
2024/01/27 12:18:47;;;;;;;7.57;1.57;;;;;;;;;;5056734;28;20187;-71
2024/01/27 12:21:18;;;;;;;8.67;1.57;;;;;;;;;;5038780;28;20425;-71
2024/01/27 12:23:51;;;;;;;6.27;1.33;;;;;;;;;;5055219;28;20207;-71
2024/01/27 12:26:22;;;;;;;8.20;1.50;;;;;;;;;;5039481;28;20174;-71
2024/01/27 12:28:50;;;;;;;6.97;2.10;;;;;;;;;;5056675;28;20194;-71
2024/01/27 12:31:17;;;;;;;6.63;2.30;;;;;;;;;;5038984;28;20193;-71
2024/01/27 12:34:01;;;;;;;5.43;1.37;;;;;;;;;;5041105;28;20264;-71
2024/01/27 12:36:28;;;;;;;5.87;1.90;;;;;;;;;;5056449;28;20205;-71
2024/01/27 12:38:59;;;;;;;5.53;1.47;;;;;;;;;;5038771;28;20218;-71
2024/01/27 12:41:27;;;;;;;4.03;1.77;;;;;;;;;;5055310;28;20190;-71
2024/01/27 12:43:54;;;;;;;6.70;1.80;;;;;;;;;;5055191;28;20202;-72
2024/01/27 12:46:21;;;;;;;3.83;2.10;;;;;;;;;;5055815;28;20183;-70
2024/01/27 12:48:48;;;;;;;5.77;1.60;;;;;;;;;;5054679;28;20284;-72
2024/01/27 12:51:15;;;;;;;4.83;1.33;;;;;;;;;;5056268;28;20191;-71
2024/01/27 12:53:43;;;;;;;7.50;1.70;;;;;;;;;;5054601;28;20246;-72
2024/01/27 12:56:11;;;;;;;10.17;1.87;;;;;;;;;;5055601;28;20183;-71
2024/01/27 12:58:38;;;;;;;5.70;1.93;;;;;;;;;;5054393;28;20688;-70
2024/01/27 13:01:05;;;;;;;6.03;1.37;;;;;;;;;;5054579;28;20194;-71
2024/01/27 13:03:32;;;;;;;8.20;1.30;;;;;;;;;;5055490;28;20252;-71
2024/01/27 13:06:00;;;;;;;7.50;2.20;;;;;;;;;;5055985;28;20182;-73
2024/01/27 13:08:27;;;;;;;6.97;2.40;;;;;;;;;;5054195;28;20245;-71
2024/01/27 13:10:54;;;;;;;5.13;2.30;;;;;;;;;;5054241;28;20191;-71
2024/01/27 13:13:21;;;;;;;6.03;1.87;;;;;;;;;;5054378;28;20191;-72
2024/01/27 13:16:06;;;;;;;4.20;1.37;;;;;;;;;;5068997;28;20610;-71
2024/01/27 13:18:33;;;;;;;6.13;1.77;;;;;;;;;;5053099;28;20183;-73
2024/01/27 13:21:00;;;;;;;10.40;2.67;;;;;;;;;;5055458;28;20193;-71
2024/01/27 13:23:27;;;;;;;8.67;2.70;;;;;;;;;;5053408;28;20183;-71
2024/01/27 13:25:53;;;;;;;8.70;2.60;;;;;;;;;;5053989;28;20301;-72
2024/01/27 13:28:40;;;;;;;7.00;2.10;;;;;;;;;;5054184;28;20514;-71
2024/01/27 13:31:07;;;;;;;6.60;1.67;;;;;;;;;;5055070;28;20233;-71
2024/01/27 13:33:35;;;;;;;5.70;1.87;;;;;;;;;;5067133;28;20270;-72
2024/01/27 13:36:03;;;;;;;7.83;1.80;;;;;;;;;;5053999;28;20538;-73
2024/01/27 13:38:30;;;;;;;7.40;1.80;;;;;;;;;;5037449;28;20195;-73
2024/01/27 13:40:57;;;;;;;7.50;2.27;;;;;;;;;;5054379;28;20521;-72
2024/01/27 13:43:24;;;;;;;9.87;2.00;;;;;;;;;;5053951;28;20202;-73
2024/01/27 13:45:51;;;;;;;5.40;1.53;;;;;;;;;;5055352;28;20225;-72
2024/01/27 13:48:18;;;;;;;7.60;2.20;;;;;;;;;;5054620;28;20521;-72
2024/01/27 13:50:47;;;;;;;7.30;2.23;;;;;;;;;;5033145;28;20603;-72
2024/01/27 13:53:14;;;;;;;6.77;2.47;;;;;;;;;;5034641;28;20227;-72
2024/01/27 13:55:44;;;;;;;9.30;2.43;;;;;;;;;;5034646;28;20738;-74
2024/01/27 13:58:10;;;;;;;6.93;2.30;;;;;;;;;;5034887;28;20207;-68
2024/01/27 14:00:37;;;;;;;8.47;2.67;;;;;;;;;;5033380;28;20175;-69
2024/01/27 14:03:04;;;;;;;4.40;2.00;;;;;;;;;;5033570;28;20203;-70
2024/01/27 14:05:32;;;;;;;7.73;1.97;;;;;;;;;;5033917;28;20211;-71
2024/01/27 14:08:02;;;;;;;9.00;2.40;;;;;;;;;;5053448;28;20186;-70
2024/01/27 14:10:28;;;;;;;9.37;2.03;;;;;;;;;;5053158;28;20534;-69
2024/01/27 14:12:56;;;;;;;7.00;2.83;;;;;;;;;;5037654;28;20199;-69
2024/01/27 14:15:24;;;;;;;5.60;2.17;;;;;;;;;;5054168;28;20270;-70
2024/01/27 14:18:09;;;;;;;6.73;2.10;;;;;;;;;;5054777;28;20587;-71
2024/01/27 14:20:37;;;;;;;8.50;2.90;;;;;;;;;;5052736;28;20273;-70
2024/01/27 14:23:05;;;;;;;9.63;2.40;;;;;;;;;;5052314;28;20190;-70
2024/01/27 14:25:33;;;;;;;8.30;2.20;;;;;;;;;;5053965;28;20202;-71
2024/01/27 14:28:01;;;;;;;5.47;1.80;;;;;;;;;;5052191;28;20296;-71
2024/01/27 14:30:28;;;;;;;8.57;2.20;;;;;;;;;;5050874;28;20187;-71
2024/01/27 14:32:54;;;;;;;6.07;2.20;;;;;;;;;;5053593;28;20186;-70
2024/01/27 14:35:22;;;;;;;9.60;1.80;;;;;;;;;;5053829;28;20191;-70
2024/01/27 14:37:50;;;;;;;10.02;2.45;;;;;;;;;;5050987;28;20424;-70
2024/01/27 14:40:20;;;;;;;8.40;2.10;;;;;;;;;;5036653;28;20278;-70
2024/01/27 14:42:49;;;;;;;5.40;2.17;;;;;;;;;;5054675;28;20168;-70
2024/01/27 14:45:35;;;;;;;12.43;2.50;;;;;;;;;;5039564;28;20638;-73
2024/01/27 14:48:03;;;;;;;9.03;2.67;;;;;;;;;;5054483;28;20185;-71
2024/01/27 14:50:31;;;;;;;9.80;2.37;;;;;;;;;;5015154;28;20288;-69
2024/01/27 14:53:01;;;;;;;9.37;2.20;;;;;;;;;;5027195;28;20229;-69
2024/01/27 14:55:30;;;;;;;9.50;2.30;;;;;;;;;;5042784;28;20287;-69
2024/01/27 14:58:03;;;;;;;11.50;3.17;;;;;;;;;;5027289;28;20248;-68
2024/01/27 15:00:43;;;;;;;11.70;3.63;;;;;;;;;;5043012;28;20202;-69
2024/01/27 15:03:14;;;;;;;10.67;3.10;;;;;;;;;;5045424;28;20306;-71
2024/01/27 15:05:42;;;;;;;11.87;3.33;;;;;;;;;;5010562;28;20663;-69
2024/01/27 15:08:09;;;;;;;10.60;3.50;;;;;;;;;;5042656;28;20217;-70
2024/01/27 15:10:36;;;;;;;12.63;3.23;;;;;;;;;;5010153;28;20191;-68
2024/01/27 15:13:03;;;;;;;7.20;2.80;;;;;;;;;;5026744;28;20519;-69
2024/01/27 15:15:36;;;;;;;16.07;4.13;;;;;;;;;;5042512;28;20533;-68
2024/01/27 15:18:05;;;;;;;9.03;2.80;;;;;;;;;;5042154;28;20440;-72
2024/01/27 15:20:33;;;;;;;9.40;3.67;;;;;;;;;;5009856;28;20268;-67
2024/01/27 15:23:01;;;;;;;14.07;3.17;;;;;;;;;;5026013;28;20183;-72
2024/01/27 15:25:30;;;;;;;9.60;2.80;;;;;;;;;;5010015;28;20475;-68
2024/01/27 15:27:57;;;;;;;8.40;2.63;;;;;;;;;;5026392;28;20908;-69
2024/01/27 15:30:26;;;;;;;8.93;3.13;;;;;;;;;;5026119;28;20908;-68
2024/01/27 15:32:55;;;;;;;15.03;3.10;;;;;;;;;;5042679;28;20190;-69
2024/01/27 15:35:22;;;;;;;8.90;2.37;;;;;;;;;;5032929;28;20476;-68